Time;durP1;ratioP1;P1;durP2;ratioP2;P2;SDS_P1;SDS_P2;PMS_P1;PMS_P2;Temp;Humidity;BMP_temperature;BMP_pressure;BME280_temperature;BME280_humidity;BME280_pressure;Samples;Min_cycle;Max_cycle;Signal;HPM_P1;HPM_P2
2021/10/01 00:03:09;;;;;;;2.92;1.00;;;17.50;67.50;;;;;;10500520;28;20097;-54
2021/10/01 00:08:10;;;;;;;2.22;1.10;;;17.50;67.40;;;;;;10500277;28;20112;-55
2021/10/01 00:13:11;;;;;;;3.25;1.50;;;17.40;67.50;;;;;;10499195;28;20425;-55
2021/10/01 00:18:11;;;;;;;8.50;1.20;;;17.40;67.40;;;;;;10500173;28;20036;-55
2021/10/01 00:23:13;;;;;;;2.63;1.00;;;17.40;67.40;;;;;;10500141;28;20032;-55
2021/10/01 00:28:14;;;;;;;2.75;1.10;;;17.50;67.60;;;;;;10481708;28;20033;-55
2021/10/01 00:33:14;;;;;;;2.90;1.13;;;17.40;67.30;;;;;;10499585;28;20123;-55
2021/10/01 00:38:15;;;;;;;2.70;1.10;;;17.40;67.30;;;;;;10499369;28;20107;-54
2021/10/01 00:43:16;;;;;;;3.13;1.20;;;17.40;67.30;;;;;;10499278;28;20047;-54
2021/10/01 00:48:17;;;;;;;4.97;1.27;;;17.40;67.20;;;;;;10499999;28;20034;-54
2021/10/01 00:53:18;;;;;;;1.92;1.02;;;17.40;67.30;;;;;;10498796;28;20442;-55
2021/10/01 00:58:19;;;;;;;3.83;1.40;;;17.40;67.20;;;;;;10497456;28;20376;-55
2021/10/01 01:03:19;;;;;;;1.73;1.10;;;17.40;67.30;;;;;;10498489;28;20369;-54
2021/10/01 01:08:25;;;;;;;3.08;0.93;;;17.40;67.40;;;;;;10498067;28;21757;-53
2021/10/01 01:13:55;;;;;;;2.95;1.10;;;17.40;67.90;;;;;;10480517;28;20025;-55
2021/10/01 01:18:58;;;;;;;2.85;1.02;;;17.40;67.20;;;;;;10496476;28;20032;-55
2021/10/01 01:24:14;;;;;;;5.55;1.20;;;17.40;67.10;;;;;;10496581;28;20511;-54
2021/10/01 01:30:04;;;;;;;3.60;1.50;;;17.40;67.20;;;;;;10494106;28;20028;-55
2021/10/01 01:35:34;;;;;;;3.40;1.47;;;17.40;67.20;;;;;;10497456;28;20032;-56
2021/10/01 01:40:36;;;;;;;;;;;17.40;67.20;;;;;;10495038;28;20554;-55
2021/10/01 01:45:38;;;;;;;3.88;1.05;;;17.30;67.00;;;;;;10495770;28;19931;-55
2021/10/01 01:50:39;;;;;;;3.15;1.40;;;17.40;67.10;;;;;;10498269;28;20025;-54
2021/10/01 01:55:41;;;;;;;3.83;1.60;;;17.40;67.00;;;;;;10495453;28;20040;-54
2021/10/01 02:00:46;;;;;;;3.90;1.10;;;17.40;67.10;;;;;;10495721;28;20036;-53
2021/10/01 02:05:49;;;;;;;2.33;0.98;;;17.40;67.00;;;;;;10495458;28;20044;-55
2021/10/01 02:10:51;;;;;;;3.35;1.42;;;17.30;67.00;;;;;;10495869;28;20044;-54
2021/10/01 02:15:54;;;;;;;2.72;1.25;;;17.30;66.80;;;;;;10478725;28;20040;-53
2021/10/01 02:20:56;;;;;;;3.38;0.88;;;17.40;67.00;;;;;;10495250;28;20040;-54
2021/10/01 02:31:26;;;;;;;3.55;0.90;;;17.40;67.00;;;;;;10504035;28;20052;-55
2021/10/01 02:36:27;;;;;;;2.75;1.10;;;17.30;67.00;;;;;;10503049;28;20079;-54
2021/10/01 02:41:28;;;;;;;2.45;0.98;;;17.40;67.00;;;;;;10503896;28;20068;-55
2021/10/01 02:46:29;;;;;;;2.38;1.00;;;17.30;66.70;;;;;;10503754;28;20801;-54
2021/10/01 02:51:34;;;;;;;2.63;1.00;;;17.30;66.90;;;;;;10514038;28;20027;-54
2021/10/01 02:56:49;;;;;;;1.77;0.90;;;17.30;66.90;;;;;;10502348;28;20035;-55
2021/10/01 03:01:50;;;;;;;3.22;1.17;;;17.30;66.90;;;;;;10502116;28;20032;-54
2021/10/01 03:06:51;;;;;;;2.40;1.05;;;17.30;66.70;;;;;;10502924;28;20078;-54
2021/10/01 03:11:53;;;;;;;2.33;0.98;;;17.30;66.90;;;;;;10501977;28;20362;-55
2021/10/01 03:16:54;;;;;;;4.40;1.00;;;17.30;66.70;;;;;;10501361;28;20044;-53
2021/10/01 03:21:56;;;;;;;1.70;0.85;;;17.30;66.70;;;;;;10501164;28;20128;-55
2021/10/01 03:26:57;;;;;;;2.20;0.90;;;17.30;66.90;;;;;;10487607;28;20047;-55
2021/10/01 03:31:58;;;;;;;2.20;0.95;;;17.30;66.80;;;;;;10479622;28;20047;-55
2021/10/01 03:36:59;;;;;;;2.33;1.05;;;17.30;66.60;;;;;;10499611;28;20060;-55
2021/10/01 03:42:00;;;;;;;2.65;0.85;;;17.30;66.70;;;;;;10500424;28;20583;-55
2021/10/01 03:47:00;;;;;;;2.25;0.82;;;17.30;66.90;;;;;;10501647;28;20029;-55
2021/10/01 03:52:01;;;;;;;2.30;1.15;;;17.30;66.90;;;;;;10502556;28;20111;-55
2021/10/01 03:57:03;;;;;;;2.38;1.00;;;17.30;66.80;;;;;;10501018;28;20043;-54
2021/10/01 04:02:03;;;;;;;2.47;0.85;;;17.20;66.80;;;;;;10501014;28;20028;-54
2021/10/01 04:07:04;;;;;;;3.03;1.00;;;17.30;66.70;;;;;;10499714;28;20041;-55
2021/10/01 04:12:06;;;;;;;2.17;0.77;;;17.20;66.70;;;;;;10499422;28;20029;-53
2021/10/01 04:17:07;;;;;;;2.97;1.23;;;17.20;66.50;;;;;;10500157;28;20123;-55
2021/10/01 04:22:07;;;;;;;1.85;0.77;;;17.20;66.40;;;;;;10500118;28;20473;-55
2021/10/01 04:27:08;;;;;;;2.88;0.90;;;17.20;66.60;;;;;;10498161;28;20076;-54
2021/10/01 04:32:10;;;;;;;1.48;0.65;;;17.20;66.60;;;;;;10499714;28;20051;-54
2021/10/01 04:37:11;;;;;;;1.42;0.82;;;17.20;66.50;;;;;;10481845;28;20033;-55
2021/10/01 04:42:11;;;;;;;2.70;0.90;;;17.20;66.50;;;;;;10495665;28;20102;-55
2021/10/01 04:47:12;;;;;;;2.22;1.10;;;17.20;66.50;;;;;;10498225;28;20127;-55
2021/10/01 04:52:13;;;;;;;5.78;1.42;;;17.20;66.40;;;;;;10499568;28;20419;-57
2021/10/01 04:57:13;;;;;;;5.22;1.33;;;17.30;67.20;;;;;;10498563;28;20037;-58
2021/10/01 05:02:14;;;;;;;4.43;1.50;;;17.50;66.80;;;;;;10497086;28;20406;-55
2021/10/01 05:07:19;;;;;;;6.30;1.80;;;17.60;67.30;;;;;;10496643;28;20075;-56
2021/10/01 05:12:20;;;;;;;6.43;1.40;;;17.60;68.00;;;;;;10497229;28;20021;-56
2021/10/01 05:17:22;;;;;;;12.48;2.10;;;17.70;67.70;;;;;;10496844;28;20476;-50
2021/10/01 05:22:23;;;;;;;10.35;2.28;;;17.70;68.00;;;;;;10497169;28;20507;-53
2021/10/01 05:27:24;;;;;;;11.57;2.13;;;17.70;67.70;;;;;;10487456;28;20115;-57
2021/10/01 05:32:25;;;;;;;6.78;2.15;;;17.80;68.40;;;;;;10495471;28;20037;-52
2021/10/01 05:37:25;;;;;;;6.95;1.98;;;17.80;68.00;;;;;;10495204;28;20029;-54
2021/10/01 05:42:26;;;;;;;11.85;2.45;;;17.70;67.40;;;;;;10492745;28;20085;-55
2021/10/01 05:47:28;;;;;;;13.13;2.75;;;17.70;67.60;;;;;;10496517;28;20117;-54
2021/10/01 05:57:32;;;;;;;31.60;4.10;;;17.60;67.80;;;;;;10495462;28;20139;-56
2021/10/01 06:02:33;;;;;;;15.32;3.38;;;17.70;67.50;;;;;;10495980;28;20035;-59
2021/10/01 06:07:34;;;;;;;24.33;5.03;;;17.70;67.40;;;;;;10494742;28;20037;-59
2021/10/01 06:12:35;;;;;;;25.90;3.72;;;17.70;67.50;;;;;;10495071;28;20028;-58
2021/10/01 06:17:36;;;;;;;23.20;3.25;;;17.70;67.70;;;;;;10493353;28;20087;-59
2021/10/01 06:22:38;;;;;;;14.77;2.80;;;17.70;67.80;;;;;;10492097;28;20071;-58
2021/10/01 06:27:39;;;;;;;15.55;2.75;;;17.60;68.10;;;;;;10477765;28;20029;-59
2021/10/01 06:32:40;;;;;;;15.30;3.17;;;17.50;68.20;;;;;;10492417;28;20037;-59
2021/10/01 06:37:41;;;;;;;11.88;2.65;;;17.40;68.70;;;;;;10494770;28;20531;-59
2021/10/01 06:42:47;;;;;;;14.55;3.10;;;17.40;68.10;;;;;;10496375;28;20373;-59
2021/10/01 06:53:18;;;;;;;12.13;3.13;;;17.40;67.20;;;;;;10488133;28;20116;-59
2021/10/01 07:21:27;;;;;;;18.65;3.78;;;17.50;67.40;;;;;;10495783;28;20032;-59
2021/10/01 08:18:43;;;;;;;11.17;2.30;;;17.70;68.20;;;;;;10498841;28;20040;-56
2021/10/01 08:23:43;;;;;;;12.30;2.58;;;17.70;67.70;;;;;;10498963;28;20119;-56
2021/10/01 08:28:44;;;;;;;13.23;2.22;;;17.70;67.80;;;;;;10496619;28;20032;-57
2021/10/01 08:33:46;;;;;;;10.55;2.17;;;17.60;67.60;;;;;;10497992;28;20127;-58
2021/10/01 08:38:47;;;;;;;10.23;2.17;;;17.60;67.60;;;;;;10496769;28;20631;-57
2021/10/01 08:43:49;;;;;;;7.47;1.48;;;17.60;67.20;;;;;;10498366;28;20392;-56
2021/10/01 08:48:52;;;;;;;10.20;1.75;;;17.50;67.10;;;;;;10504433;28;20372;-56
2021/10/01 08:53:55;;;;;;;16.63;2.72;;;17.50;67.30;;;;;;10470072;28;20090;-55
2021/10/01 08:58:56;;;;;;;7.05;1.48;;;17.50;67.30;;;;;;10496002;28;20029;-56
2021/10/01 09:03:57;;;;;;;6.90;1.73;;;17.60;67.30;;;;;;10496229;28;20052;-55
2021/10/01 09:09:05;;;;;;;7.80;1.48;;;17.60;66.80;;;;;;10495459;28;20027;-57
2021/10/01 09:14:10;;;;;;;5.32;1.83;;;17.60;67.00;;;;;;10495611;28;20108;-56
2021/10/01 09:19:11;;;;;;;6.93;1.42;;;17.70;67.00;;;;;;10496268;28;20112;-57
2021/10/01 09:24:16;;;;;;;4.93;1.55;;;17.60;67.00;;;;;;10496596;28;20031;-57
2021/10/01 09:29:33;;;;;;;2.90;1.13;;;17.60;67.40;;;;;;10484014;28;20083;-56
2021/10/01 09:34:46;;;;;;;4.65;1.35;;;17.50;67.40;;;;;;10494978;28;20124;-57
2021/10/01 09:39:53;;;;;;;7.43;1.80;;;17.50;67.50;;;;;;10488008;28;20040;-62
2021/10/01 09:44:59;;;;;;;26.40;2.17;;;17.50;67.40;;;;;;10496484;28;20060;-55
2021/10/01 09:50:15;;;;;;;6.75;1.50;;;17.60;68.20;;;;;;10505631;28;20025;-54
2021/10/01 09:55:22;;;;;;;7.05;1.70;;;17.70;67.80;;;;;;10496889;28;20064;-55
2021/10/01 10:00:53;;;;;;;4.97;1.58;;;17.80;67.90;;;;;;10495200;28;20028;-56
2021/10/01 10:05:55;;;;;;;8.63;1.88;;;17.80;68.00;;;;;;10495584;28;20127;-57
2021/10/01 10:10:58;;;;;;;9.85;1.50;;;17.80;67.90;;;;;;10496687;28;20029;-56
2021/10/01 10:16:27;;;;;;;9.45;1.77;;;17.80;68.20;;;;;;10496503;28;20384;-56
2021/10/01 10:21:28;;;;;;;14.32;2.45;;;17.90;68.10;;;;;;10495983;28;20063;-56
2021/10/01 10:26:29;;;;;;;11.60;1.52;;;17.90;68.00;;;;;;10494981;28;20038;-57
2021/10/01 10:31:34;;;;;;;11.57;2.00;;;17.90;68.20;;;;;;10495921;28;20044;-58
2021/10/01 10:36:44;;;;;;;14.73;2.53;;;18.00;68.40;;;;;;10495894;28;20100;-57
2021/10/01 10:41:48;;;;;;;12.75;2.92;;;18.00;68.90;;;;;;10495981;28;20082;-56
2021/10/01 10:46:49;;;;;;;18.52;2.50;;;18.00;69.00;;;;;;10499285;28;20039;-57
2021/10/01 10:52:16;;;;;;;21.42;2.80;;;18.00;68.90;;;;;;10513611;28;20037;-54
2021/10/01 10:57:17;;;;;;;16.20;3.42;;;18.10;69.40;;;;;;10518970;28;20115;-58
2021/10/01 11:02:32;;;;;;;21.10;2.78;;;18.20;69.40;;;;;;10500266;28;20119;-54
2021/10/01 11:07:57;;;;;;;16.08;3.05;;;18.20;68.80;;;;;;10499765;28;20531;-53
2021/10/01 11:13:23;;;;;;;18.17;2.10;;;18.10;68.90;;;;;;10501205;28;20028;-56
2021/10/01 11:18:26;;;;;;;24.65;3.83;;;18.20;69.60;;;;;;10502154;28;20119;-56
2021/10/01 11:23:27;;;;;;;15.40;2.80;;;18.10;68.90;;;;;;10501185;28;20110;-54
2021/10/01 11:28:32;;;;;;;14.02;2.67;;;18.20;69.70;;;;;;10488688;28;20031;-53
2021/10/01 11:33:33;;;;;;;19.88;3.05;;;18.20;69.80;;;;;;10501647;28;20045;-54
2021/10/01 11:38:34;;;;;;;27.33;3.20;;;18.30;69.80;;;;;;10500352;28;20115;-57
2021/10/01 11:43:52;;;;;;;22.17;3.42;;;18.30;69.20;;;;;;10501255;28;20036;-56
2021/10/01 11:48:53;;;;;;;18.20;3.08;;;18.30;69.10;;;;;;10509535;28;20035;-57
2021/10/01 11:54:14;;;;;;;12.00;2.80;;;18.20;68.30;;;;;;10501039;28;20036;-57
2021/10/01 11:59:15;;;;;;;18.50;3.30;;;18.10;69.40;;;;;;10498890;28;20028;-57
2021/10/01 12:04:15;;;;;;;16.02;2.55;;;18.10;69.60;;;;;;10500845;28;20107;-56
2021/10/01 12:09:18;;;;;;;9.38;2.28;;;18.10;69.60;;;;;;10500556;28;20052;-57
2021/10/01 12:14:21;;;;;;;12.85;3.80;;;18.00;69.50;;;;;;10499160;28;20048;-58
2021/10/01 12:19:23;;;;;;;16.02;3.40;;;18.00;70.00;;;;;;10499638;28;20073;-57
2021/10/01 12:24:24;;;;;;;14.77;3.78;;;18.10;69.30;;;;;;10499895;28;20078;-58
2021/10/01 12:29:25;;;;;;;16.35;3.22;;;18.20;69.10;;;;;;10498463;28;20539;-56
2021/10/01 12:34:30;;;;;;;11.38;2.42;;;18.20;68.60;;;;;;10498182;28;20051;-58
2021/10/01 12:39:35;;;;;;;15.50;3.33;;;18.10;69.10;;;;;;10499404;28;20074;-57
2021/10/01 12:44:40;;;;;;;14.27;2.40;;;18.10;68.30;;;;;;10498834;28;20039;-60
2021/10/01 12:49:43;;;;;;;13.82;2.45;;;18.00;68.30;;;;;;10508452;28;20024;-57
2021/10/01 12:54:47;;;;;;;12.50;3.10;;;18.10;69.30;;;;;;10495534;28;20028;-58
2021/10/01 12:59:54;;;;;;;15.02;2.85;;;18.10;68.70;;;;;;10498430;28;20032;-60
2021/10/01 13:04:59;;;;;;;12.02;2.13;;;18.20;68.70;;;;;;10480332;28;20064;-59
2021/10/01 13:10:14;;;;;;;9.50;3.40;;;18.20;68.50;;;;;;10497407;28;20028;-58
2021/10/01 13:15:36;;;;;;;11.20;2.25;;;18.20;67.90;;;;;;10496416;28;20032;-58
2021/10/01 13:20:41;;;;;;;8.90;2.30;;;18.10;67.90;;;;;;10496137;28;20062;-58
2021/10/01 13:25:53;;;;;;;17.27;2.35;;;18.10;68.10;;;;;;10497087;28;20168;-58
2021/10/01 13:30:54;;;;;;;11.07;2.53;;;18.20;68.00;;;;;;10495876;28;20044;-57
2021/10/01 13:35:57;;;;;;;6.55;2.58;;;18.10;67.90;;;;;;10495843;28;20033;-59
2021/10/01 13:41:00;;;;;;;9.15;2.25;;;18.10;67.70;;;;;;10496774;28;20025;-59
2021/10/01 13:46:03;;;;;;;11.40;2.05;;;18.10;67.90;;;;;;10496474;28;20426;-58
2021/10/01 13:51:04;;;;;;;19.85;3.17;;;18.20;68.00;;;;;;10490257;28;20024;-59
2021/10/01 13:56:06;;;;;;;19.30;3.63;;;18.20;67.90;;;;;;10489793;28;20039;-59
2021/10/01 14:01:07;;;;;;;10.18;2.38;;;18.30;67.80;;;;;;10495632;28;20548;-57
2021/10/01 14:06:08;;;;;;;10.73;2.40;;;18.60;69.20;;;;;;10496270;28;20115;-61
2021/10/01 14:11:08;;;;;;;21.45;3.17;;;18.70;68.40;;;;;;10496590;28;20457;-58
2021/10/01 14:16:09;;;;;;;16.42;2.78;;;19.00;67.70;;;;;;10496343;28;20060;-59
2021/10/01 14:21:10;;;;;;;10.85;2.40;;;19.20;66.90;;;;;;10498850;28;20374;-57
2021/10/01 14:26:11;;;;;;;15.23;2.38;;;19.30;66.60;;;;;;10492330;28;20490;-58
2021/10/01 14:31:11;;;;;;;12.20;2.58;;;19.50;66.00;;;;;;10502840;28;20115;-61
2021/10/01 14:36:12;;;;;;;9.10;2.45;;;19.50;65.50;;;;;;10504385;28;20107;-60
2021/10/01 14:41:13;;;;;;;14.70;2.47;;;19.70;65.00;;;;;;10486040;28;20082;-60
2021/10/01 14:46:14;;;;;;;22.27;3.20;;;19.80;64.40;;;;;;10502657;28;20358;-57
2021/10/01 14:51:14;;;;;;;15.02;3.40;;;19.70;64.70;;;;;;10496467;28;20020;-59
2021/10/01 14:56:15;;;;;;;11.60;2.20;;;19.60;65.20;;;;;;10503010;28;20106;-60
2021/10/01 15:01:16;;;;;;;12.80;2.50;;;19.50;65.20;;;;;;10501871;28;20036;-62
2021/10/01 15:06:17;;;;;;;7.68;2.08;;;19.50;65.50;;;;;;10502699;28;20037;-58
2021/10/01 15:11:17;;;;;;;11.23;2.70;;;19.40;66.10;;;;;;10502412;28;20060;-58
2021/10/01 15:16:18;;;;;;;9.52;2.45;;;19.30;66.70;;;;;;10501421;28;20036;-59
2021/10/01 15:21:19;;;;;;;10.27;2.10;;;19.30;67.00;;;;;;10500759;28;20111;-61
2021/10/01 15:26:19;;;;;;;17.35;2.95;;;19.30;67.30;;;;;;10487414;28;20029;-59
2021/10/01 15:31:20;;;;;;;12.65;2.85;;;19.20;67.60;;;;;;10501382;28;20561;-60
2021/10/01 15:36:23;;;;;;;16.73;3.90;;;19.10;67.70;;;;;;10501688;28;20139;-61
2021/10/01 15:41:25;;;;;;;25.08;3.72;;;19.00;68.00;;;;;;10500464;28;20127;-58
2021/10/01 15:46:25;;;;;;;21.42;4.07;;;19.00;68.40;;;;;;10500282;28;20024;-61
2021/10/01 15:51:26;;;;;;;22.92;4.47;;;19.00;68.60;;;;;;10510042;28;20060;-61
2021/10/01 15:56:27;;;;;;;30.70;4.90;;;18.90;68.30;;;;;;10483030;28;20059;-60
2021/10/01 16:01:27;;;;;;;21.05;3.72;;;18.80;68.00;;;;;;10495687;28;20151;-61
2021/10/01 16:06:28;;;;;;;22.42;4.07;;;18.80;67.60;;;;;;10493952;28;20469;-59
2021/10/01 16:11:29;;;;;;;14.63;3.30;;;18.80;67.30;;;;;;10484982;28;20025;-59
2021/10/01 16:16:30;;;;;;;18.92;3.42;;;18.80;67.10;;;;;;10499819;28;20036;-59
2021/10/01 16:21:30;;;;;;;16.25;4.25;;;19.00;66.60;;;;;;10500103;28;20107;-59
2021/10/01 16:26:33;;;;;;;18.48;3.15;;;18.90;66.60;;;;;;10465117;28;20035;-59
2021/10/01 16:31:37;;;;;;;12.65;2.75;;;18.90;67.30;;;;;;10499502;28;20049;-58
2021/10/01 16:36:38;;;;;;;7.25;2.10;;;18.90;67.00;;;;;;10498719;28;20036;-58
2021/10/01 16:41:38;;;;;;;14.48;3.28;;;18.80;66.90;;;;;;10497345;28;20135;-59
2021/10/01 16:46:39;;;;;;;6.57;2.33;;;18.90;66.90;;;;;;10497052;28;20458;-58
2021/10/01 16:51:42;;;;;;;9.10;2.90;;;18.70;67.00;;;;;;10499056;28;20707;-59
2021/10/01 16:56:43;;;;;;;8.40;2.17;;;18.60;67.60;;;;;;10497830;28;20028;-58
2021/10/01 17:01:43;;;;;;;9.35;2.85;;;18.50;67.90;;;;;;10497096;28;20027;-58
2021/10/01 17:06:44;;;;;;;6.53;1.98;;;18.50;68.00;;;;;;10497473;28;20052;-59
2021/10/01 17:11:46;;;;;;;19.17;3.08;;;18.50;68.20;;;;;;10496682;28;20437;-57
2021/10/01 17:16:47;;;;;;;12.30;3.53;;;18.60;69.00;;;;;;10484720;28;20035;-57
2021/10/01 17:21:47;;;;;;;7.97;3.22;;;18.70;68.50;;;;;;10495782;28;20064;-59
2021/10/01 17:26:49;;;;;;;11.77;2.83;;;18.70;68.80;;;;;;10485381;28;20060;-57
2021/10/01 17:31:50;;;;;;;10.00;2.38;;;18.60;69.50;;;;;;10495453;28;20036;-57
2021/10/01 17:36:52;;;;;;;15.07;2.33;;;18.60;69.40;;;;;;10495536;28;20481;-57
2021/10/01 17:41:53;;;;;;;11.63;2.97;;;18.60;69.70;;;;;;10497355;28;20039;-56
2021/10/01 17:46:56;;;;;;;6.53;2.38;;;18.60;69.70;;;;;;10496813;28;20086;-60
2021/10/01 17:51:58;;;;;;;9.55;2.20;;;18.50;69.70;;;;;;10497081;28;20020;-58
2021/10/01 17:56:59;;;;;;;11.02;2.70;;;18.60;69.50;;;;;;10494950;28;20028;-59
2021/10/01 18:01:59;;;;;;;8.30;2.03;;;18.60;69.90;;;;;;10496408;28;20075;-57
2021/10/01 18:07:01;;;;;;;12.05;2.78;;;18.50;70.00;;;;;;10461929;28;20049;-59
2021/10/01 18:12:02;;;;;;;9.95;3.13;;;18.40;69.90;;;;;;10486365;28;20485;-57
2021/10/01 18:17:04;;;;;;;7.30;2.20;;;18.40;70.10;;;;;;10488638;28;20029;-58
2021/10/01 18:22:05;;;;;;;9.32;1.95;;;18.30;70.10;;;;;;10488771;28;20032;-58
2021/10/01 18:27:06;;;;;;;9.05;2.33;;;18.30;70.40;;;;;;10487320;28;20393;-58
2021/10/01 18:32:08;;;;;;;3.88;1.60;;;18.20;70.40;;;;;;10487413;28;20045;-58
2021/10/01 18:37:09;;;;;;;6.22;1.80;;;18.20;70.60;;;;;;10484704;28;20036;-58
2021/10/01 18:42:10;;;;;;;5.32;1.90;;;18.30;70.60;;;;;;10488804;28;20025;-58
2021/10/01 18:47:11;;;;;;;6.05;1.83;;;18.30;70.50;;;;;;10488824;28;20035;-58
2021/10/01 18:52:12;;;;;;;8.52;2.28;;;18.20;70.60;;;;;;10487056;28;20370;-58
2021/10/01 18:57:13;;;;;;;6.47;1.90;;;18.20;70.70;;;;;;10488762;28;20029;-58
2021/10/01 19:02:14;;;;;;;5.32;1.67;;;18.20;70.80;;;;;;10487478;28;20032;-58
2021/10/01 19:07:16;;;;;;;4.95;2.00;;;18.20;70.80;;;;;;10489511;28;20037;-57
2021/10/01 19:12:17;;;;;;;3.45;1.50;;;18.20;70.80;;;;;;10494191;28;20029;-58
2021/10/01 19:17:18;;;;;;;4.50;1.60;;;18.20;70.80;;;;;;10495488;28;20024;-58
2021/10/01 19:22:21;;;;;;;5.43;1.80;;;18.20;70.80;;;;;;10494979;28;20183;-58
2021/10/01 19:32:34;;;;;;;11.25;2.17;;;18.20;70.90;;;;;;10499147;28;20094;-57
2021/10/01 19:37:35;;;;;;;5.35;2.08;;;18.20;70.80;;;;;;10498062;28;20832;-58
2021/10/01 19:42:36;;;;;;;2.95;1.42;;;18.10;71.00;;;;;;10501360;28;20481;-58
2021/10/01 19:47:37;;;;;;;2.08;1.35;;;18.10;71.10;;;;;;10500389;28;20044;-57
2021/10/01 19:52:38;;;;;;;4.85;1.27;;;18.10;71.10;;;;;;10504915;28;20030;-57
2021/10/01 19:57:41;;;;;;;3.80;1.85;;;18.00;71.20;;;;;;10499067;28;20028;-57
2021/10/01 20:02:47;;;;;;;3.45;1.50;;;18.00;71.20;;;;;;10498029;28;20032;-58
2021/10/01 20:07:50;;;;;;;3.25;1.70;;;18.00;71.20;;;;;;10499759;28;20032;-57
2021/10/01 20:12:50;;;;;;;5.13;1.67;;;18.00;71.30;;;;;;10496467;28;20029;-58
2021/10/01 20:17:59;;;;;;;7.13;2.30;;;18.00;71.30;;;;;;10498650;28;20028;-58
2021/10/01 20:46:47;;;;;;;3.03;1.73;;;17.90;71.30;;;;;;10499161;28;20040;-58
2021/10/01 20:49:44;;;;;;;4.67;1.67;;;17.90;71.50;;;;;;10506807;28;20036;-58
2021/10/01 20:54:48;;;;;;;3.45;1.50;;;17.90;71.50;;;;;;10499138;28;20448;-58
2021/10/01 20:59:57;;;;;;;3.55;1.73;;;17.90;71.50;;;;;;10481330;28;20083;-58
2021/10/01 21:52:46;;;;;;;2.97;1.23;;;17.80;71.60;;;;;;10491234;28;20489;-57
2021/10/01 21:57:49;;;;;;;3.83;1.52;;;17.80;71.50;;;;;;10496895;28;20051;-57
2021/10/01 22:08:28;;;;;;;2.53;1.20;;;17.80;71.60;;;;;;10495887;28;20501;-57
2021/10/01 22:13:49;;;;;;;3.10;1.50;;;17.80;71.70;;;;;;10495444;28;20051;-58
2021/10/01 22:24:12;;;;;;;3.40;1.77;;;17.80;71.60;;;;;;10495616;28;20044;-58
2021/10/01 22:29:12;;;;;;;4.47;1.50;;;17.80;71.60;;;;;;10481244;28;20033;-57
2021/10/01 22:34:13;;;;;;;3.15;1.48;;;17.80;71.60;;;;;;10477711;28;20040;-57
2021/10/01 22:39:15;;;;;;;3.60;1.60;;;17.80;71.80;;;;;;10494901;28;20123;-57
2021/10/01 22:44:22;;;;;;;4.22;2.25;;;17.80;71.50;;;;;;10500616;28;20043;-58
2021/10/01 22:49:25;;;;;;;3.25;1.40;;;17.80;71.40;;;;;;10529777;28;20028;-57
2021/10/01 22:54:26;;;;;;;4.68;1.55;;;17.80;71.40;;;;;;10503430;28;20035;-57
2021/10/01 22:59:27;;;;;;;3.35;1.50;;;17.80;71.70;;;;;;10502544;28;20021;-56
2021/10/01 23:04:28;;;;;;;2.67;1.33;;;17.80;71.50;;;;;;10503014;28;20024;-58
2021/10/01 23:09:29;;;;;;;3.63;1.50;;;17.80;71.60;;;;;;10502144;28;20473;-58
2021/10/01 23:52:00;;;;;;;2.22;1.20;;;17.70;71.70;;;;;;10511763;28;20021;-58
